Time;durP1;ratioP1;P1;durP2;ratioP2;P2;SDS_P1;SDS_P2;PMS_P1;PMS_P2;Temp;Humidity;BMP_temperature;BMP_pressure;BME280_temperature;BME280_humidity;BME280_pressure;Samples;Min_cycle;Max_cycle;Signal;HPM_P1;HPM_P2
2022/08/27 00:00:23;;;;;;;8.60;3.78;;;;;;;15.76;100.00;92816.97;5088810;28;20044;-76
2022/08/27 00:02:50;;;;;;;8.70;3.97;;;;;;;15.74;100.00;92818.25;5088845;28;20483;-76
2022/08/27 00:05:18;;;;;;;8.48;3.80;;;;;;;15.67;100.00;92817.66;5089081;28;20048;-77
2022/08/27 00:07:45;;;;;;;6.45;4.43;;;;;;;15.63;100.00;92825.94;5088904;28;20653;-75
2022/08/27 00:10:15;;;;;;;8.35;4.30;;;;;;;15.64;100.00;92821.53;5089359;28;20435;-77
2022/08/27 00:12:42;;;;;;;8.80;3.90;;;;;;;15.42;100.00;92786.19;5088981;28;20040;-77
2022/08/27 00:15:10;;;;;;;8.25;4.50;;;;;;;15.57;100.00;92819.19;5089085;28;20077;-78
2022/08/27 00:17:38;;;;;;;5.63;3.47;;;;;;;15.56;100.00;92804.66;5089003;28;20040;-77
2022/08/27 00:20:07;;;;;;;6.78;4.30;;;;;;;15.59;100.00;92809.34;5089024;28;20434;-77
2022/08/27 00:22:33;;;;;;;7.22;4.18;;;;;;;15.50;100.00;92792.72;5089006;28;20105;-77
2022/08/27 00:25:01;;;;;;;7.93;4.03;;;;;;;15.57;100.00;92808.81;5088641;28;20097;-77
2022/08/27 00:27:28;;;;;;;6.88;3.88;;;;;;;15.47;100.00;92806.19;5088926;28;20044;-76
2022/08/27 00:29:58;;;;;;;8.05;3.70;;;;;;;15.23;100.00;92781.44;5088893;28;20397;-76
2022/08/27 00:32:25;;;;;;;7.53;4.05;;;;;;;15.30;100.00;92799.34;5088348;28;20479;-76
2022/08/27 00:34:53;;;;;;;8.60;4.18;;;;;;;15.33;100.00;92801.41;5088290;28;20101;-77
2022/08/27 00:37:19;;;;;;;7.40;4.03;;;;;;;15.23;100.00;92796.97;5088532;28;20778;-78
2022/08/27 00:39:46;;;;;;;6.75;3.45;;;;;;;15.29;100.00;92809.94;5088838;28;20044;-77
2022/08/27 00:42:13;;;;;;;6.75;4.07;;;;;;;15.29;100.00;92807.34;5088965;28;20081;-76
2022/08/27 00:44:40;;;;;;;9.32;4.10;;;;;;;15.19;100.00;92806.25;5088694;28;20044;-77
2022/08/27 00:47:12;;;;;;;7.68;3.80;;;;;;;15.19;100.00;92815.81;5088882;28;20040;-77
2022/08/27 00:49:44;;;;;;;6.65;3.95;;;;;;;15.12;100.00;92810.84;5088459;28;20578;-77
2022/08/27 00:52:18;;;;;;;7.60;4.68;;;;;;;15.13;100.00;92807.22;5088764;28;20040;-77
2022/08/27 00:54:46;;;;;;;8.02;4.25;;;;;;;15.08;100.00;92807.19;5088724;28;20059;-77
2022/08/27 00:57:15;;;;;;;9.98;4.45;;;;;;;15.07;100.00;92810.81;5088689;28;20052;-77
2022/08/27 00:59:42;;;;;;;7.18;4.45;;;;;;;15.02;100.00;92805.59;5088839;28;20048;-76
2022/08/27 01:02:24;;;;;;;9.90;4.50;;;;;;;15.03;100.00;92804.56;5088732;28;20089;-76
2022/08/27 01:04:54;;;;;;;8.80;4.43;;;;;;;14.97;100.00;92808.94;5088942;28;20097;-78
2022/08/27 01:07:25;;;;;;;8.25;4.35;;;;;;;14.98;100.00;92809.69;5088262;28;20085;-75
2022/08/27 01:09:54;;;;;;;7.90;3.88;;;;;;;14.87;100.00;92799.28;5088372;28;20048;-75
2022/08/27 01:12:21;;;;;;;6.13;3.95;;;;;;;14.99;100.00;92803.53;5088321;28;20055;-75
2022/08/27 01:14:48;;;;;;;8.85;4.85;;;;;;;14.92;100.00;92804.50;5088251;28;20079;-75
2022/08/27 01:17:15;;;;;;;6.78;4.20;;;;;;;14.90;100.00;92803.19;5088475;28;20044;-76
2022/08/27 01:19:45;;;;;;;8.13;3.90;;;;;;;14.94;100.00;92801.66;5088090;28;20040;-76
2022/08/27 01:22:20;;;;;;;9.73;4.50;;;;;;;14.83;100.00;92803.38;5092234;28;20044;-76
2022/08/27 01:24:50;;;;;;;7.70;4.32;;;;;;;14.77;100.00;92802.53;5091945;28;20093;-76
2022/08/27 01:27:21;;;;;;;9.10;4.28;;;;;;;14.73;100.00;92793.72;5091316;28;20488;-76
2022/08/27 01:29:48;;;;;;;6.60;4.30;;;;;;;14.78;100.00;92800.75;5092253;28;20040;-76
2022/08/27 01:32:19;;;;;;;7.55;4.40;;;;;;;14.75;100.00;92801.22;5091726;28;20052;-76
2022/08/27 01:34:46;;;;;;;8.30;5.18;;;;;;;14.76;100.00;92808.75;5091944;28;20584;-76
2022/08/27 01:37:15;;;;;;;10.55;4.75;;;;;;;14.77;100.00;92796.63;5091807;28;20040;-76
2022/08/27 01:39:43;;;;;;;11.38;5.55;;;;;;;14.74;100.00;92812.56;5091948;28;20044;-77
2022/08/27 01:42:16;;;;;;;6.82;3.97;;;;;;;14.70;100.00;92807.91;5092042;28;20040;-77
2022/08/27 01:44:51;;;;;;;9.05;4.07;;;;;;;14.71;100.00;92813.84;5091406;28;20040;-76
2022/08/27 01:47:19;;;;;;;8.13;4.68;;;;;;;14.70;100.00;92820.84;5091692;28;20047;-76
2022/08/27 01:49:47;;;;;;;7.60;4.68;;;;;;;14.61;100.00;92809.38;5091878;28;20097;-76
2022/08/27 01:52:15;;;;;;;7.70;4.20;;;;;;;14.47;100.00;92811.56;5091437;28;20048;-75
2022/08/27 01:54:42;;;;;;;12.00;4.45;;;;;;;14.55;100.00;92812.94;5091568;28;20040;-75
2022/08/27 01:57:10;;;;;;;8.40;4.78;;;;;;;14.53;100.00;92813.16;5091403;28;20396;-75
2022/08/27 01:59:37;;;;;;;8.88;4.63;;;;;;;14.50;100.00;92818.84;5091269;28;20102;-75
2022/08/27 02:02:05;;;;;;;11.07;4.30;;;;;;;14.35;100.00;92798.75;5091178;28;20042;-76
2022/08/27 02:04:32;;;;;;;10.63;4.50;;;;;;;14.45;100.00;92816.19;5091539;28;20101;-76
2022/08/27 02:07:00;;;;;;;11.32;4.85;;;;;;;14.43;100.00;92810.47;5091295;28;20048;-76
2022/08/27 02:09:27;;;;;;;6.63;4.18;;;;;;;14.43;100.00;92815.66;5091103;28;20496;-75
2022/08/27 02:11:53;;;;;;;7.20;4.40;;;;;;;14.48;100.00;92820.88;5091123;28;20040;-76
2022/08/27 02:14:21;;;;;;;7.18;4.05;;;;;;;14.49;100.00;92811.31;5091204;28;20097;-76
2022/08/27 02:16:49;;;;;;;6.30;4.00;;;;;;;14.46;100.00;92810.00;5091007;28;20514;-75
2022/08/27 02:19:16;;;;;;;8.35;4.10;;;;;;;14.48;100.00;92817.53;5091261;28;20097;-75
2022/08/27 02:21:43;;;;;;;7.63;4.80;;;;;;;14.42;100.00;92822.63;5090959;28;20040;-75
2022/08/27 02:24:10;;;;;;;6.05;4.20;;;;;;;14.48;100.00;92820.09;5091067;28;20063;-75
2022/08/27 02:26:37;;;;;;;8.57;4.35;;;;;;;14.51;100.00;92827.34;5090615;28;20046;-74
2022/08/27 02:29:04;;;;;;;8.48;4.57;;;;;;;14.50;100.00;92821.41;5090617;28;20071;-74
2022/08/27 02:31:32;;;;;;;8.98;4.40;;;;;;;14.50;100.00;92820.63;5090857;28;20089;-74
2022/08/27 02:34:00;;;;;;;8.18;5.07;;;;;;;14.51;100.00;92833.31;5090656;28;20052;-74
2022/08/27 02:36:27;;;;;;;10.07;4.93;;;;;;;14.51;100.00;92825.56;5091099;28;20048;-75
2022/08/27 02:38:54;;;;;;;6.70;4.70;;;;;;;14.49;100.00;92832.75;5090585;28;20040;-75
2022/08/27 02:41:22;;;;;;;9.32;4.60;;;;;;;14.38;100.00;92828.50;5090641;28;20051;-76
2022/08/27 02:43:48;;;;;;;5.70;3.85;;;;;;;14.46;100.00;92846.19;5090813;28;20050;-75
2022/08/27 02:46:15;;;;;;;7.22;4.15;;;;;;;14.39;100.00;92848.94;5090433;28;20504;-75
2022/08/27 02:48:44;;;;;;;7.55;4.90;;;;;;;14.43;100.00;92849.25;5090544;28;20127;-75
2022/08/27 02:51:10;;;;;;;8.68;4.40;;;;;;;14.43;100.00;92844.88;5090698;28;20163;-76
2022/08/27 02:53:37;;;;;;;6.78;4.65;;;;;;;14.43;100.00;92844.88;5090584;28;20085;-75
2022/08/27 02:56:05;;;;;;;7.80;4.18;;;;;;;14.37;100.00;92847.63;5090740;28;20121;-76
2022/08/27 02:58:32;;;;;;;7.03;4.13;;;;;;;14.22;100.00;92835.31;5090196;28;20093;-73
2022/08/27 03:01:00;;;;;;;7.10;4.13;;;;;;;14.21;100.00;92846.69;5090133;28;20071;-77
2022/08/27 03:03:27;;;;;;;8.88;4.50;;;;;;;14.20;100.00;92853.63;5090483;28;20077;-77
2022/08/27 03:05:56;;;;;;;8.07;4.88;;;;;;;14.18;100.00;92857.47;5090048;28;20059;-75
2022/08/27 03:08:23;;;;;;;10.82;4.72;;;;;;;14.09;100.00;92862.28;5089780;28;20085;-75
2022/08/27 03:10:50;;;;;;;8.38;4.60;;;;;;;14.03;100.00;92854.47;5090264;28;20052;-75
2022/08/27 03:13:17;;;;;;;9.45;4.68;;;;;;;14.03;100.00;92859.63;5090084;28;20039;-75
2022/08/27 03:15:44;;;;;;;7.80;4.32;;;;;;;14.03;100.00;92864.81;5089829;28;20101;-75
2022/08/27 03:18:19;;;;;;;9.95;4.88;;;;;;;13.97;100.00;92860.59;5090090;28;20048;-75
2022/08/27 03:20:49;;;;;;;6.07;4.97;;;;;;;13.93;100.00;92861.31;5090165;28;20040;-75
2022/08/27 03:23:21;;;;;;;10.80;5.55;;;;;;;13.88;100.00;92867.97;5089754;28;20048;-75
2022/08/27 03:25:51;;;;;;;9.73;4.50;;;;;;;13.76;100.00;92850.00;5089660;28;20047;-75
2022/08/27 03:28:18;;;;;;;7.43;4.47;;;;;;;13.78;100.00;92860.09;5089632;28;20040;-75
2022/08/27 03:30:50;;;;;;;11.65;5.28;;;;;;;13.71;100.00;92851.75;5089970;28;20040;-75
2022/08/27 03:33:18;;;;;;;7.82;5.03;;;;;;;13.71;100.00;92862.84;5089534;28;20044;-75
2022/08/27 03:35:45;;;;;;;10.55;4.70;;;;;;;13.65;100.00;92852.69;5089964;28;20129;-78
2022/08/27 03:38:12;;;;;;;7.70;5.03;;;;;;;13.76;100.00;92867.31;5089425;28;20036;-76
2022/08/27 03:40:40;;;;;;;7.97;5.05;;;;;;;13.78;100.00;92861.91;5089376;28;20089;-76
2022/08/27 03:43:07;;;;;;;8.13;4.63;;;;;;;13.85;100.00;92863.28;5088864;28;20492;-76
2022/08/27 03:45:33;;;;;;;9.85;5.10;;;;;;;13.84;100.00;92858.38;5089393;28;20044;-76
2022/08/27 03:48:00;;;;;;;10.02;4.70;;;;;;;13.76;100.00;92852.56;5089726;28;20044;-76
2022/08/27 03:50:27;;;;;;;7.85;4.55;;;;;;;13.78;100.00;92864.50;5089883;28;20596;-77
2022/08/27 03:52:54;;;;;;;11.38;5.43;;;;;;;13.78;100.00;92867.06;5090012;28;20044;-77
2022/08/27 03:55:21;;;;;;;10.88;4.90;;;;;;;13.74;100.00;92867.53;5089123;28;20043;-76
2022/08/27 03:57:49;;;;;;;9.85;5.38;;;;;;;13.76;100.00;92875.81;5089576;28;20044;-77
2022/08/27 04:00:16;;;;;;;13.10;5.63;;;;;;;13.79;100.00;92868.63;5089372;28;20512;-77
2022/08/27 04:02:44;;;;;;;10.57;5.10;;;;;;;13.84;100.00;92884.19;5089253;28;20097;-77
2022/08/27 04:05:11;;;;;;;11.18;4.78;;;;;;;13.84;100.00;92881.59;5087806;28;20056;-76
2022/08/27 04:07:38;;;;;;;10.57;5.00;;;;;;;13.90;100.00;92878.06;5088629;28;20055;-76
2022/08/27 04:10:07;;;;;;;9.43;4.78;;;;;;;13.89;100.00;92887.59;5089374;28;20093;-76
2022/08/27 04:12:33;;;;;;;9.55;4.80;;;;;;;13.83;100.00;92867.91;5088972;28;20040;-76
2022/08/27 04:15:02;;;;;;;10.93;5.57;;;;;;;13.85;100.00;92871.03;5088751;28;20048;-76
2022/08/27 04:17:29;;;;;;;12.32;5.53;;;;;;;14.00;100.00;92885.16;5087787;28;20068;-76
2022/08/27 04:19:56;;;;;;;10.18;5.10;;;;;;;13.98;100.00;92874.31;5089117;28;20093;-76
2022/08/27 04:22:23;;;;;;;12.05;5.25;;;;;;;13.98;100.00;92884.63;5088240;28;20543;-76
2022/08/27 04:24:50;;;;;;;11.80;5.13;;;;;;;13.97;100.00;92870.13;5085424;28;20048;-76
2022/08/27 04:27:17;;;;;;;7.97;4.90;;;;;;;14.08;100.00;92887.34;5088213;28;20048;-76
2022/08/27 04:29:44;;;;;;;9.80;4.72;;;;;;;14.09;100.00;92888.91;5088589;28;20044;-77
2022/08/27 04:32:12;;;;;;;12.20;5.57;;;;;;;14.09;100.00;92885.53;5079693;28;20134;-77
2022/08/27 04:34:39;;;;;;;7.95;4.75;;;;;;;14.13;100.00;92891.78;5088927;28;20051;-77
2022/08/27 04:37:05;;;;;;;10.32;5.40;;;;;;;14.19;100.00;92890.03;5089072;28;20052;-77
2022/08/27 04:39:32;;;;;;;11.32;4.88;;;;;;;14.16;100.00;92892.09;5089308;28;20435;-76
2022/08/27 04:42:00;;;;;;;10.77;5.90;;;;;;;14.15;100.00;92895.69;5086702;28;20804;-76
2022/08/27 04:44:29;;;;;;;11.07;5.25;;;;;;;14.17;100.00;92895.47;5077568;28;20044;-76
2022/08/27 04:47:00;;;;;;;8.00;4.85;;;;;;;14.23;100.00;92888.53;5089209;28;20450;-76
2022/08/27 04:49:29;;;;;;;11.18;5.32;;;;;;;14.22;100.00;92887.78;5089105;28;20097;-76
2022/08/27 04:51:56;;;;;;;13.43;7.93;;;;;;;14.33;100.00;92904.16;5089337;28;20412;-76
2022/08/27 04:54:24;;;;;;;15.18;8.50;;;;;;;14.34;100.00;92904.97;5088616;28;20503;-76
2022/08/27 04:56:51;;;;;;;13.75;7.88;;;;;;;14.37;100.00;92902.69;5092135;28;20097;-76
2022/08/27 04:59:18;;;;;;;14.18;7.63;;;;;;;14.38;100.00;92903.44;5090156;28;20044;-76
2022/08/27 05:01:45;;;;;;;16.02;8.30;;;;;;;14.43;100.00;92903.50;5093185;28;20123;-76
2022/08/27 05:04:14;;;;;;;13.60;7.90;;;;;;;14.46;100.00;92905.63;5093063;28;20052;-76
2022/08/27 05:06:44;;;;;;;10.98;7.13;;;;;;;14.51;100.00;92904.88;5093017;28;20245;-76
2022/08/27 05:09:11;;;;;;;13.63;7.57;;;;;;;14.59;100.00;92904.47;5092841;28;20097;-78
2022/08/27 05:11:38;;;;;;;12.30;7.47;;;;;;;14.60;100.00;92897.47;5092703;28;20098;-77
2022/08/27 05:14:07;;;;;;;13.80;7.07;;;;;;;14.68;100.00;92905.59;5092962;28;20055;-77
2022/08/27 05:16:35;;;;;;;18.70;9.55;;;;;;;14.73;100.00;92898.91;5092356;28;20047;-77
2022/08/27 05:19:04;;;;;;;13.13;7.35;;;;;;;14.85;100.00;92906.56;5092829;28;20040;-76
2022/08/27 05:21:33;;;;;;;9.05;6.65;;;;;;;14.81;100.00;92903.66;5088717;28;20040;-76
2022/08/27 05:24:04;;;;;;;9.95;6.63;;;;;;;14.83;100.00;92909.41;5092415;28;20553;-76
2022/08/27 05:26:32;;;;;;;10.93;6.60;;;;;;;14.90;100.00;92904.81;5092245;28;20044;-76
2022/08/27 05:29:00;;;;;;;19.25;10.98;;;;;;;14.94;100.00;92900.72;5092682;28;20044;-76
2022/08/27 05:31:28;;;;;;;33.10;21.15;;;;;;;15.07;100.00;92894.38;5092634;28;20048;-76
2022/08/27 05:33:56;;;;;;;24.17;15.95;;;;;;;15.26;100.00;92895.81;5086411;28;20076;-76
2022/08/27 05:36:25;;;;;;;23.00;13.90;;;;;;;15.34;100.00;92890.19;5092016;28;20136;-76
2022/08/27 05:38:54;;;;;;;16.48;9.13;;;;;;;15.58;100.00;92905.38;5092352;28;20040;-76
2022/08/27 05:41:26;;;;;;;17.42;9.75;;;;;;;15.61;100.00;92892.72;5092337;28;20101;-76
2022/08/27 05:43:54;;;;;;;13.48;8.40;;;;;;;15.63;100.00;92869.16;5092008;28;20443;-76
2022/08/27 05:46:23;;;;;;;10.95;6.68;;;;;;;15.94;100.00;92900.47;5090394;28;20036;-76
2022/08/27 05:48:51;;;;;;;12.85;5.38;;;;;;;16.00;100.00;92911.63;5092156;28;20055;-76
2022/08/27 05:51:21;;;;;;;15.30;6.57;;;;;;;16.07;100.00;92904.44;5091598;28;20040;-76
2022/08/27 05:53:47;;;;;;;11.32;6.18;;;;;;;16.20;100.00;92903.19;5091599;28;20571;-76
2022/08/27 05:56:16;;;;;;;12.25;5.57;;;;;;;16.44;100.00;92905.38;5088658;28;20097;-76
2022/08/27 06:01:31;;;;;;;12.15;5.22;;;;;;;16.82;100.00;92915.59;5091882;28;20059;-76
2022/08/27 06:03:58;;;;;;;8.90;4.75;;;;;;;16.99;100.00;92914.63;5090588;28;20054;-76
2022/08/27 06:06:24;;;;;;;8.07;5.38;;;;;;;17.26;98.55;92916.25;5091018;28;20044;-77
2022/08/27 06:08:53;;;;;;;8.40;4.68;;;;;;;17.48;98.74;92919.38;5091889;28;20044;-76
2022/08/27 06:11:22;;;;;;;10.93;4.78;;;;;;;17.71;99.25;92911.28;5091569;28;20047;-76
2022/08/27 06:13:50;;;;;;;8.52;4.63;;;;;;;17.91;96.56;92915.69;5091856;28;20052;-76
2022/08/27 06:16:19;;;;;;;9.77;5.22;;;;;;;18.02;96.30;92917.22;5091347;28;20051;-76
2022/08/27 06:18:47;;;;;;;11.05;5.05;;;;;;;18.25;96.66;92914.34;5091770;28;20101;-76
2022/08/27 06:21:16;;;;;;;9.63;4.50;;;;;;;18.30;96.01;92916.94;5089257;28;20074;-77
2022/08/27 06:23:43;;;;;;;9.25;4.70;;;;;;;18.34;99.53;92914.59;5091588;28;20446;-76
2022/08/27 06:26:12;;;;;;;11.90;4.18;;;;;;;18.50;98.00;92916.09;5091183;28;20072;-76
2022/08/27 06:28:40;;;;;;;12.52;4.63;;;;;;;18.83;95.74;92923.50;5091207;28;20846;-76
2022/08/27 06:31:10;;;;;;;9.00;4.30;;;;;;;19.03;92.10;92927.84;5091181;28;20393;-76
2022/08/27 06:33:37;;;;;;;13.32;4.75;;;;;;;19.15;91.64;92922.31;5090920;28;20044;-77
2022/08/27 06:36:07;;;;;;;17.02;5.93;;;;;;;19.44;91.35;92931.25;5077232;28;20049;-76
2022/08/27 06:38:34;;;;;;;12.00;5.68;;;;;;;19.52;91.21;92938.47;5091266;28;20052;-77
2022/08/27 06:41:03;;;;;;;13.27;4.68;;;;;;;19.71;89.93;92929.97;5090798;28;20093;-77
2022/08/27 06:43:30;;;;;;;10.70;4.05;;;;;;;20.03;86.13;92933.91;5090931;28;20531;-76
2022/08/27 06:45:56;;;;;;;10.32;4.63;;;;;;;20.16;80.99;92928.06;5090865;28;20036;-77
2022/08/27 06:48:25;;;;;;;9.27;3.90;;;;;;;20.38;79.56;92924.19;5090745;28;20093;-76
2022/08/27 06:50:51;;;;;;;7.85;4.07;;;;;;;20.58;78.84;92929.41;5090654;28;20048;-76
2022/08/27 06:53:18;;;;;;;12.20;3.83;;;;;;;20.91;78.45;92932.19;5090682;28;20112;-76
2022/08/27 06:55:47;;;;;;;11.27;4.13;;;;;;;21.25;79.08;92912.16;5090869;28;20134;-76
2022/08/27 06:58:15;;;;;;;7.15;3.90;;;;;;;21.65;75.98;92924.91;5090667;28;20080;-76
2022/08/27 07:00:42;;;;;;;8.90;4.20;;;;;;;21.88;71.22;92929.25;5090724;28;20549;-76
2022/08/27 07:03:10;;;;;;;9.02;3.38;;;;;;;22.24;71.88;92929.69;5090725;28;20446;-76
2022/08/27 07:05:40;;;;;;;12.60;4.15;;;;;;;22.40;65.28;92932.81;5090841;28;20040;-77
2022/08/27 07:08:08;;;;;;;9.60;3.47;;;;;;;22.45;63.53;92909.13;5090477;28;20040;-77
2022/08/27 07:10:34;;;;;;;11.88;3.80;;;;;;;22.80;67.03;92917.38;5090425;28;20047;-76
2022/08/27 07:13:02;;;;;;;11.82;3.80;;;;;;;23.10;65.07;92924.91;5090412;28;20043;-76
2022/08/27 07:15:28;;;;;;;7.35;3.55;;;;;;;22.83;61.20;92924.63;5090700;28;20040;-76
2022/08/27 07:17:55;;;;;;;10.15;3.63;;;;;;;23.13;62.47;92928.78;5089204;28;20048;-76
2022/08/27 07:20:22;;;;;;;9.70;3.15;;;;;;;23.35;61.70;92930.66;5086475;28;20120;-76
2022/08/27 07:22:53;;;;;;;7.20;3.20;;;;;;;23.23;60.25;92929.31;5090482;28;20048;-76
2022/08/27 07:25:20;;;;;;;10.82;3.63;;;;;;;23.38;62.15;92929.31;5090679;28;20512;-76
2022/08/27 07:27:47;;;;;;;8.30;3.35;;;;;;;23.60;60.73;92929.31;5090921;28;20105;-76
2022/08/27 07:30:15;;;;;;;14.98;4.38;;;;;;;23.80;60.76;92935.16;5090231;28;20102;-77
2022/08/27 07:32:42;;;;;;;6.85;3.45;;;;;;;23.94;61.41;92916.72;5089778;28;20040;-76
2022/08/27 07:35:09;;;;;;;5.25;3.30;;;;;;;23.96;60.18;92937.38;5090254;28;20139;-77
2022/08/27 07:37:36;;;;;;;9.75;3.40;;;;;;;24.19;59.21;92927.66;5085997;28;20097;-76
2022/08/27 07:40:08;;;;;;;7.40;3.33;;;;;;;24.58;60.17;92927.97;5087941;28;20101;-76
2022/08/27 07:45:18;;;;;;;7.90;3.30;;;;;;;24.90;57.48;92933.91;5089854;28;20054;-76
2022/08/27 07:47:47;;;;;;;7.60;2.92;;;;;;;24.62;54.99;92926.25;5089848;28;20104;-77
2022/08/27 07:50:14;;;;;;;7.30;3.20;;;;;;;24.60;55.96;92932.88;5090252;28;20052;-77
2022/08/27 07:52:42;;;;;;;12.52;4.07;;;;;;;24.09;57.29;92939.19;5089544;28;20074;-77
2022/08/27 07:55:11;;;;;;;7.88;3.20;;;;;;;24.24;58.19;92931.97;5089838;28;20044;-76
2022/08/27 07:57:38;;;;;;;7.93;3.13;;;;;;;24.28;55.55;92931.09;5089335;28;20548;-77
2022/08/27 08:00:08;;;;;;;12.18;3.53;;;;;;;23.83;56.20;92926.66;5089816;28;20040;-77
2022/08/27 08:02:35;;;;;;;8.70;3.25;;;;;;;24.23;55.06;92923.34;5089496;28;20085;-77
2022/08/27 08:05:02;;;;;;;9.38;3.25;;;;;;;24.53;55.38;92939.34;5089147;28;20492;-77
2022/08/27 08:07:28;;;;;;;7.00;3.38;;;;;;;24.89;56.27;92932.38;5089835;28;20055;-77
2022/08/27 08:09:55;;;;;;;10.13;3.00;;;;;;;25.19;53.60;92931.81;5090143;28;20047;-77
2022/08/27 08:12:23;;;;;;;13.70;3.05;;;;;;;25.52;55.69;92915.56;5089445;28;20044;-79
2022/08/27 08:14:54;;;;;;;11.48;2.88;;;;;;;26.01;51.19;92933.75;5089185;28;20089;-74
2022/08/27 08:17:21;;;;;;;9.10;2.92;;;;;;;26.37;53.87;92936.28;5088741;28;20067;-75
2022/08/27 08:19:49;;;;;;;6.10;3.10;;;;;;;26.74;52.04;92935.84;5086720;28;20507;-77
2022/08/27 08:22:15;;;;;;;5.88;2.80;;;;;;;26.94;50.91;92921.94;5089590;28;20048;-77
2022/08/27 08:24:42;;;;;;;6.68;3.17;;;;;;;27.30;50.68;92929.63;5088839;28;20043;-77
2022/08/27 08:27:10;;;;;;;6.30;2.50;;;;;;;27.44;45.72;92930.13;5089459;28;20109;-75
2022/08/27 08:29:38;;;;;;;10.70;2.70;;;;;;;27.56;47.03;92921.50;5089363;28;20078;-74
2022/08/27 08:32:05;;;;;;;8.20;2.60;;;;;;;27.32;41.87;92932.69;5075663;28;20047;-75
2022/08/27 08:34:34;;;;;;;8.00;3.83;;;;;;;27.59;45.20;92926.13;5088890;28;20531;-74
2022/08/27 08:37:01;;;;;;;6.50;2.58;;;;;;;27.73;45.00;92917.94;5089080;28;20068;-77
2022/08/27 08:39:28;;;;;;;9.02;3.38;;;;;;;27.63;46.31;92901.75;5089303;28;20044;-75
2022/08/27 08:41:58;;;;;;;7.50;2.80;;;;;;;27.83;46.23;92918.63;5076922;28;20048;-76
2022/08/27 08:44:31;;;;;;;6.22;2.65;;;;;;;28.13;46.53;92915.81;5087818;28;20651;-75
2022/08/27 08:47:05;;;;;;;8.98;2.60;;;;;;;28.54;45.23;92921.28;5089222;28;20044;-75
2022/08/27 08:49:46;;;;;;;10.02;3.10;;;;;;;28.77;45.42;92918.19;5089047;28;20040;-75
2022/08/27 08:52:26;;;;;;;6.15;2.78;;;;;;;29.11;41.53;92937.34;5089221;28;20060;-75
2022/08/27 08:55:00;;;;;;;7.07;3.38;;;;;;;29.16;42.21;92925.78;5088411;28;20037;-75
2022/08/27 08:57:33;;;;;;;7.50;2.90;;;;;;;28.72;42.19;92911.25;5088550;28;20524;-75
2022/08/27 09:00:05;;;;;;;12.18;2.67;;;;;;;28.49;42.97;92918.88;5088635;28;20074;-75
2022/08/27 09:02:34;;;;;;;9.25;2.85;;;;;;;28.32;42.55;92925.91;5089168;28;20052;-75
2022/08/27 09:05:05;;;;;;;12.18;3.08;;;;;;;28.80;43.56;92912.25;5088486;28;20048;-75
2022/08/27 09:07:38;;;;;;;10.07;3.60;;;;;;;29.20;44.96;92903.59;5089126;28;20044;-75
2022/08/27 09:10:13;;;;;;;5.13;2.92;;;;;;;29.54;42.58;92921.16;5088913;28;20097;-75
2022/08/27 09:12:40;;;;;;;31.15;5.10;;;;;;;29.84;43.21;92913.63;5088683;28;20449;-75
2022/08/27 09:15:14;;;;;;;6.55;2.40;;;;;;;30.08;42.02;92905.91;5088662;28;20093;-74
2022/08/27 09:17:42;;;;;;;6.78;3.00;;;;;;;29.94;41.61;92909.72;5088907;28;20517;-75
2022/08/27 09:20:10;;;;;;;5.88;2.42;;;;;;;29.79;40.09;92887.41;5089208;28;20101;-75
2022/08/27 09:22:47;;;;;;;7.30;2.55;;;;;;;29.64;39.16;92906.66;5075060;28;20097;-75
2022/08/27 09:25:20;;;;;;;6.07;3.13;;;;;;;28.95;40.77;92905.53;5088679;28;20151;-75
2022/08/27 09:27:48;;;;;;;7.97;2.78;;;;;;;28.89;40.20;92896.31;5088890;28;20127;-76
2022/08/27 09:30:21;;;;;;;8.25;2.63;;;;;;;28.99;42.66;92909.06;5088515;28;20594;-76
2022/08/27 09:32:55;;;;;;;11.13;2.58;;;;;;;28.86;40.31;92892.41;5088535;28;20511;-75
2022/08/27 09:35:24;;;;;;;9.20;3.00;;;;;;;29.33;42.73;92901.69;5082258;28;20674;-76
2022/08/27 09:37:53;;;;;;;7.28;2.65;;;;;;;29.72;38.59;92903.88;5088735;28;20059;-75
2022/08/27 09:40:30;;;;;;;6.75;2.90;;;;;;;30.27;39.99;92895.41;5088459;28;20044;-75
2022/08/27 09:43:04;;;;;;;5.70;2.60;;;;;;;30.28;37.49;92901.50;5091923;28;20097;-75
2022/08/27 09:45:31;;;;;;;4.68;2.42;;;;;;;30.20;38.56;92900.56;5092054;28;20044;-75
2022/08/27 09:48:07;;;;;;;9.15;2.60;;;;;;;30.65;39.67;92898.53;5092199;28;20138;-75
2022/08/27 09:50:37;;;;;;;11.35;2.80;;;;;;;30.72;37.30;92902.50;5092268;28;20072;-75
2022/08/27 09:53:05;;;;;;;5.93;2.53;;;;;;;30.98;38.94;92907.22;5088097;28;20442;-75
2022/08/27 09:55:39;;;;;;;8.00;2.55;;;;;;;30.96;35.80;92900.75;5092151;28;20040;-77
2022/08/27 09:58:15;;;;;;;8.35;2.67;;;;;;;30.15;35.35;92887.56;5092137;28;20456;-77
2022/08/27 10:00:41;;;;;;;5.70;2.65;;;;;;;30.78;38.11;92893.16;5082018;28;20105;-77
2022/08/27 10:03:11;;;;;;;6.63;3.00;;;;;;;31.09;36.16;92891.53;5076597;28;20048;-77
2022/08/27 10:05:44;;;;;;;9.65;2.50;;;;;;;31.33;37.31;92898.47;5087402;28;20044;-76
2022/08/27 10:08:22;;;;;;;11.07;2.67;;;;;;;31.63;36.12;92889.19;5078998;28;20044;-77
2022/08/27 10:10:55;;;;;;;8.48;2.88;;;;;;;31.86;36.10;92889.25;5089150;28;20040;-76
2022/08/27 10:13:33;;;;;;;10.35;2.88;;;;;;;30.60;33.37;92890.88;5090907;28;20105;-76
2022/08/27 10:16:19;;;;;;;16.77;4.57;;;;;;;31.29;34.03;92888.94;5091202;28;20044;-76
2022/08/27 10:18:57;;;;;;;7.60;3.22;;;;;;;31.28;32.33;92890.81;5090358;28;20044;-76
2022/08/27 10:21:35;;;;;;;6.93;3.03;;;;;;;31.54;34.72;92894.72;5089811;28;20047;-76
2022/08/27 10:24:19;;;;;;;9.43;2.78;;;;;;;31.87;35.00;92892.66;5091119;28;20412;-76
2022/08/27 10:26:56;;;;;;;7.80;2.80;;;;;;;31.87;35.76;92882.03;5091461;28;20043;-76
2022/08/27 10:29:35;;;;;;;7.32;3.33;;;;;;;32.37;34.68;92883.97;5090530;28;20492;-76
2022/08/27 10:32:13;;;;;;;8.75;3.35;;;;;;;32.69;35.53;92878.41;5077098;28;20044;-76
2022/08/27 10:35:00;;;;;;;8.60;3.70;;;;;;;33.01;33.42;92880.75;5091348;28;20052;-75
2022/08/27 10:37:36;;;;;;;9.63;3.47;;;;;;;33.17;33.06;92885.91;5091211;28;20036;-75
2022/08/27 10:40:11;;;;;;;7.28;3.78;;;;;;;33.39;34.57;92885.38;5091208;28;20054;-75
2022/08/27 10:42:42;;;;;;;;;;;;;;;33.43;33.63;92881.63;5091652;28;20412;-75
2022/08/27 10:45:21;;;;;;;5.68;2.85;;;;;;;33.63;33.09;92889.47;5091116;28;19927;-76
2022/08/27 10:48:07;;;;;;;7.95;3.05;;;;;;;33.72;31.73;92889.19;5090554;28;20550;-76
2022/08/27 10:50:45;;;;;;;8.57;3.20;;;;;;;33.74;31.49;92880.81;5091610;28;20043;-77
2022/08/27 10:53:25;;;;;;;9.90;2.85;;;;;;;33.72;30.55;92884.63;5091419;28;20438;-76
2022/08/27 10:55:59;;;;;;;11.10;3.72;;;;;;;33.82;30.69;92877.88;5089978;28;20506;-76
2022/08/27 10:58:42;;;;;;;7.95;2.42;;;;;;;32.91;32.50;92882.09;5089846;28;20556;-76
2022/08/27 11:01:16;;;;;;;7.15;2.80;;;;;;;31.86;33.99;92889.25;5089684;28;20446;-76
2022/08/27 11:03:49;;;;;;;7.70;2.53;;;;;;;30.61;34.89;92879.16;5089973;28;20036;-78
2022/08/27 11:06:25;;;;;;;8.32;3.55;;;;;;;30.48;35.96;92875.06;5090733;28;20106;-77
2022/08/27 11:08:57;;;;;;;9.57;2.90;;;;;;;29.96;35.18;92877.59;5089389;28;20486;-77
2022/08/27 11:11:31;;;;;;;9.95;2.90;;;;;;;30.45;36.66;92873.09;5089903;28;20054;-76
2022/08/27 11:13:59;;;;;;;8.60;2.95;;;;;;;30.44;36.88;92867.03;5089741;28;20054;-76
2022/08/27 11:16:33;;;;;;;8.25;3.60;;;;;;;30.85;38.18;92860.72;5090694;28;20109;-77
2022/08/27 11:19:06;;;;;;;6.72;3.47;;;;;;;31.09;36.50;92870.31;5089981;28;20109;-77
2022/08/27 11:21:53;;;;;;;6.75;2.90;;;;;;;30.50;35.56;92856.94;5077649;28;20054;-77
2022/08/27 11:24:28;;;;;;;5.47;2.72;;;;;;;30.26;35.45;92864.75;5086741;28;20048;-78
2022/08/27 11:27:02;;;;;;;8.05;2.78;;;;;;;29.84;35.08;92858.03;5087336;28;20142;-78
2022/08/27 11:29:35;;;;;;;6.75;2.95;;;;;;;30.04;37.41;92860.03;5088816;28;20048;-76
2022/08/27 11:32:11;;;;;;;6.78;2.97;;;;;;;29.89;36.62;92859.66;5088150;28;20076;-78
2022/08/27 11:34:42;;;;;;;7.05;2.83;;;;;;;29.92;36.14;92850.28;5077921;28;20507;-78
2022/08/27 11:37:27;;;;;;;8.85;2.90;;;;;;;29.46;35.46;92854.81;5083288;28;20461;-78
2022/08/27 11:40:09;;;;;;;;;;;;;;;29.89;36.52;92853.63;5082875;28;20113;-77
2022/08/27 11:42:40;;;;;;;7.90;3.25;;;;;;;29.85;36.41;92848.22;5087885;28;19946;-80